sensor_id;sensor_type;location;lat;lon;timestamp;temperature;humidity
68511;SHT31;55512;50.102;19.958;2023-09-30T00:02:11;16.72;66.40
68511;SHT31;55512;50.102;19.958;2023-09-30T00:04:37;16.67;66.54
68511;SHT31;55512;50.102;19.958;2023-09-30T00:07:03;16.67;66.60
68511;SHT31;55512;50.102;19.958;2023-09-30T00:09:29;16.65;66.60
68511;SHT31;55512;50.102;19.958;2023-09-30T00:11:55;16.61;66.62
68511;SHT31;55512;50.102;19.958;2023-09-30T00:14:20;16.58;66.66
68511;SHT31;55512;50.102;19.958;2023-09-30T00:16:46;16.58;66.66
68511;SHT31;55512;50.102;19.958;2023-09-30T00:19:11;16.57;66.70
68511;SHT31;55512;50.102;19.958;2023-09-30T00:21:37;16.55;66.70
68511;SHT31;55512;50.102;19.958;2023-09-30T00:24:03;16.54;66.70
68511;SHT31;55512;50.102;19.958;2023-09-30T00:26:29;16.53;66.79
68511;SHT31;55512;50.102;19.958;2023-09-30T00:28:54;16.48;66.90
68511;SHT31;55512;50.102;19.958;2023-09-30T00:31:20;16.43;67.04
68511;SHT31;55512;50.102;19.958;2023-09-30T00:33:45;16.40;67.12
68511;SHT31;55512;50.102;19.958;2023-09-30T00:36:12;16.36;67.20
68511;SHT31;55512;50.102;19.958;2023-09-30T00:38:37;16.33;67.22
68511;SHT31;55512;50.102;19.958;2023-09-30T00:41:03;16.32;67.27
68511;SHT31;55512;50.102;19.958;2023-09-30T00:43:29;16.35;67.27
68511;SHT31;55512;50.102;19.958;2023-09-30T00:46:17;16.37;67.15
68511;SHT31;55512;50.102;19.958;2023-09-30T00:48:52;16.35;67.15
68511;SHT31;55512;50.102;19.958;2023-09-30T00:51:19;16.35;67.17
68511;SHT31;55512;50.102;19.958;2023-09-30T00:53:46;16.34;67.20
68511;SHT31;55512;50.102;19.958;2023-09-30T00:56:11;16.35;67.14
68511;SHT31;55512;50.102;19.958;2023-09-30T00:58:38;16.39;67.09
68511;SHT31;55512;50.102;19.958;2023-09-30T01:01:04;16.42;67.00
68511;SHT31;55512;50.102;19.958;2023-09-30T01:03:30;16.43;66.90
68511;SHT31;55512;50.102;19.958;2023-09-30T01:05:56;16.40;66.93
68511;SHT31;55512;50.102;19.958;2023-09-30T01:08:21;16.38;67.01
68511;SHT31;55512;50.102;19.958;2023-09-30T01:10:47;16.36;67.06
68511;SHT31;55512;50.102;19.958;2023-09-30T01:13:13;16.36;66.91
68511;SHT31;55512;50.102;19.958;2023-09-30T01:15:39;16.38;66.82
68511;SHT31;55512;50.102;19.958;2023-09-30T01:18:04;16.38;66.72
68511;SHT31;55512;50.102;19.958;2023-09-30T01:20:30;16.33;66.81
68511;SHT31;55512;50.102;19.958;2023-09-30T01:22:56;16.30;66.90
68511;SHT31;55512;50.102;19.958;2023-09-30T01:25:22;16.30;66.81
68511;SHT31;55512;50.102;19.958;2023-09-30T01:27:49;16.32;66.70
68511;SHT31;55512;50.102;19.958;2023-09-30T01:30:16;16.31;66.62
68511;SHT31;55512;50.102;19.958;2023-09-30T01:32:43;16.33;66.58
68511;SHT31;55512;50.102;19.958;2023-09-30T01:35:09;16.36;66.48
68511;SHT31;55512;50.102;19.958;2023-09-30T01:37:35;16.36;66.37
68511;SHT31;55512;50.102;19.958;2023-09-30T01:40:01;16.40;66.29
68511;SHT31;55512;50.102;19.958;2023-09-30T01:42:28;16.40;66.26
68511;SHT31;55512;50.102;19.958;2023-09-30T01:44:54;16.36;66.23
68511;SHT31;55512;50.102;19.958;2023-09-30T01:47:21;16.35;66.20
68511;SHT31;55512;50.102;19.958;2023-09-30T01:49:47;16.34;66.16
68511;SHT31;55512;50.102;19.958;2023-09-30T01:52:12;16.35;66.04
68511;SHT31;55512;50.102;19.958;2023-09-30T01:54:38;16.34;65.91
68511;SHT31;55512;50.102;19.958;2023-09-30T01:57:03;16.34;65.90
68511;SHT31;55512;50.102;19.958;2023-09-30T01:59:29;16.32;65.89
68511;SHT31;55512;50.102;19.958;2023-09-30T02:01:54;16.30;65.84
68511;SHT31;55512;50.102;19.958;2023-09-30T02:04:19;16.30;65.80
68511;SHT31;55512;50.102;19.958;2023-09-30T02:06:45;16.31;65.70
68511;SHT31;55512;50.102;19.958;2023-09-30T02:09:10;16.32;65.64
68511;SHT31;55512;50.102;19.958;2023-09-30T02:11:36;16.35;65.55
68511;SHT31;55512;50.102;19.958;2023-09-30T02:14:02;16.38;65.48
68511;SHT31;55512;50.102;19.958;2023-09-30T02:16:28;16.38;65.37
68511;SHT31;55512;50.102;19.958;2023-09-30T02:18:54;16.41;65.30
68511;SHT31;55512;50.102;19.958;2023-09-30T02:21:20;16.43;65.26
68511;SHT31;55512;50.102;19.958;2023-09-30T02:23:47;16.43;65.15
68511;SHT31;55512;50.102;19.958;2023-09-30T02:26:16;16.44;65.10
68511;SHT31;55512;50.102;19.958;2023-09-30T02:28:42;16.46;65.04
68511;SHT31;55512;50.102;19.958;2023-09-30T02:31:08;16.51;64.92
68511;SHT31;55512;50.102;19.958;2023-09-30T02:33:34;16.55;64.80
68511;SHT31;55512;50.102;19.958;2023-09-30T02:36:06;16.59;64.68
68511;SHT31;55512;50.102;19.958;2023-09-30T02:38:33;16.63;64.54
68511;SHT31;55512;50.102;19.958;2023-09-30T02:41:01;16.64;64.44
68511;SHT31;55512;50.102;19.958;2023-09-30T02:43:27;16.68;64.37
68511;SHT31;55512;50.102;19.958;2023-09-30T02:45:53;16.71;64.24
68511;SHT31;55512;50.102;19.958;2023-09-30T02:48:19;16.73;64.09
68511;SHT31;55512;50.102;19.958;2023-09-30T02:50:44;16.75;64.03
68511;SHT31;55512;50.102;19.958;2023-09-30T02:53:10;16.76;64.01
68511;SHT31;55512;50.102;19.958;2023-09-30T02:55:37;16.80;64.00
68511;SHT31;55512;50.102;19.958;2023-09-30T02:58:02;16.81;64.00
68511;SHT31;55512;50.102;19.958;2023-09-30T03:00:28;16.84;63.90
68511;SHT31;55512;50.102;19.958;2023-09-30T03:02:59;16.87;63.88
68511;SHT31;55512;50.102;19.958;2023-09-30T03:05:26;16.91;63.86
68511;SHT31;55512;50.102;19.958;2023-09-30T03:07:55;17.00;63.74
68511;SHT31;55512;50.102;19.958;2023-09-30T03:10:21;17.10;63.62
68511;SHT31;55512;50.102;19.958;2023-09-30T03:12:51;17.18;63.47
68511;SHT31;55512;50.102;19.958;2023-09-30T03:15:20;17.26;63.32
68511;SHT31;55512;50.102;19.958;2023-09-30T03:17:46;17.34;63.14
68511;SHT31;55512;50.102;19.958;2023-09-30T03:20:15;17.36;62.92
68511;SHT31;55512;50.102;19.958;2023-09-30T03:22:44;17.35;62.80
68511;SHT31;55512;50.102;19.958;2023-09-30T03:25:13;17.29;62.88
68511;SHT31;55512;50.102;19.958;2023-09-30T03:27:42;17.20;62.98
68511;SHT31;55512;50.102;19.958;2023-09-30T03:30:11;17.12;63.02
68511;SHT31;55512;50.102;19.958;2023-09-30T03:32:38;17.07;63.10
68511;SHT31;55512;50.102;19.958;2023-09-30T03:35:05;17.03;63.24
68511;SHT31;55512;50.102;19.958;2023-09-30T03:37:32;16.97;63.36
68511;SHT31;55512;50.102;19.958;2023-09-30T03:39:59;16.91;63.56
68511;SHT31;55512;50.102;19.958;2023-09-30T03:42:26;16.84;63.69
68511;SHT31;55512;50.102;19.958;2023-09-30T03:44:51;16.78;63.80
68511;SHT31;55512;50.102;19.958;2023-09-30T03:47:16;16.72;63.96
68511;SHT31;55512;50.102;19.958;2023-09-30T03:49:43;16.69;64.00
68511;SHT31;55512;50.102;19.958;2023-09-30T03:52:09;16.68;64.09
68511;SHT31;55512;50.102;19.958;2023-09-30T03:54:36;16.67;64.14
68511;SHT31;55512;50.102;19.958;2023-09-30T03:57:02;16.61;64.23
68511;SHT31;55512;50.102;19.958;2023-09-30T03:59:28;16.57;64.36
68511;SHT31;55512;50.102;19.958;2023-09-30T04:01:55;16.55;64.44
68511;SHT31;55512;50.102;19.958;2023-09-30T04:04:22;16.56;64.50
68511;SHT31;55512;50.102;19.958;2023-09-30T04:06:49;16.56;64.50
68511;SHT31;55512;50.102;19.958;2023-09-30T04:09:16;16.53;64.63
68511;SHT31;55512;50.102;19.958;2023-09-30T04:11:42;16.48;64.82
68511;SHT31;55512;50.102;19.958;2023-09-30T04:14:08;16.41;65.10
68511;SHT31;55512;50.102;19.958;2023-09-30T04:16:34;16.37;65.26
68511;SHT31;55512;50.102;19.958;2023-09-30T04:19:02;16.35;65.39
68511;SHT31;55512;50.102;19.958;2023-09-30T04:21:29;16.33;65.55
68511;SHT31;55512;50.102;19.958;2023-09-30T04:23:57;16.32;65.67
68511;SHT31;55512;50.102;19.958;2023-09-30T04:26:22;16.31;65.81
68511;SHT31;55512;50.102;19.958;2023-09-30T04:28:48;16.26;65.91
68511;SHT31;55512;50.102;19.958;2023-09-30T04:31:14;16.23;66.15
68511;SHT31;55512;50.102;19.958;2023-09-30T04:33:39;16.18;66.37
68511;SHT31;55512;50.102;19.958;2023-09-30T04:36:08;16.14;66.48
68511;SHT31;55512;50.102;19.958;2023-09-30T04:38:34;16.10;66.75
68511;SHT31;55512;50.102;19.958;2023-09-30T04:41:02;16.08;66.80
68511;SHT31;55512;50.102;19.958;2023-09-30T04:43:28;16.07;66.86
68511;SHT31;55512;50.102;19.958;2023-09-30T04:45:54;16.07;66.90
68511;SHT31;55512;50.102;19.958;2023-09-30T04:48:22;16.04;66.90
68511;SHT31;55512;50.102;19.958;2023-09-30T04:50:48;16.03;66.85
68511;SHT31;55512;50.102;19.958;2023-09-30T04:53:14;16.06;66.75
68511;SHT31;55512;50.102;19.958;2023-09-30T04:55:42;16.08;66.72
68511;SHT31;55512;50.102;19.958;2023-09-30T04:58:08;16.09;66.80
68511;SHT31;55512;50.102;19.958;2023-09-30T05:00:34;16.14;66.88
68511;SHT31;55512;50.102;19.958;2023-09-30T05:03:00;16.15;66.97
68511;SHT31;55512;50.102;19.958;2023-09-30T05:05:26;16.16;67.07
68511;SHT31;55512;50.102;19.958;2023-09-30T05:07:53;16.18;67.06
68511;SHT31;55512;50.102;19.958;2023-09-30T05:10:19;16.18;67.06
68511;SHT31;55512;50.102;19.958;2023-09-30T05:12:45;16.17;67.10
68511;SHT31;55512;50.102;19.958;2023-09-30T05:15:14;16.18;67.12
68511;SHT31;55512;50.102;19.958;2023-09-30T05:17:41;16.24;67.12
68511;SHT31;55512;50.102;19.958;2023-09-30T05:20:10;16.28;67.10
68511;SHT31;55512;50.102;19.958;2023-09-30T05:22:37;16.30;67.13
68511;SHT31;55512;50.102;19.958;2023-09-30T05:25:05;16.34;67.15
68511;SHT31;55512;50.102;19.958;2023-09-30T05:27:32;16.40;67.11
68511;SHT31;55512;50.102;19.958;2023-09-30T05:29:58;16.44;67.03
68511;SHT31;55512;50.102;19.958;2023-09-30T05:32:23;16.46;67.07
68511;SHT31;55512;50.102;19.958;2023-09-30T05:34:51;16.47;67.08
68511;SHT31;55512;50.102;19.958;2023-09-30T05:37:18;16.52;67.10
68511;SHT31;55512;50.102;19.958;2023-09-30T05:39:46;16.56;67.10
68511;SHT31;55512;50.102;19.958;2023-09-30T05:42:14;16.56;67.15
68511;SHT31;55512;50.102;19.958;2023-09-30T05:44:41;16.55;67.16
68511;SHT31;55512;50.102;19.958;2023-09-30T05:47:07;16.54;67.10
68511;SHT31;55512;50.102;19.958;2023-09-30T05:49:33;16.56;67.04
68511;SHT31;55512;50.102;19.958;2023-09-30T05:51:59;16.59;67.00
68511;SHT31;55512;50.102;19.958;2023-09-30T05:54:24;16.63;67.03
68511;SHT31;55512;50.102;19.958;2023-09-30T05:56:50;16.64;67.09
68511;SHT31;55512;50.102;19.958;2023-09-30T05:59:15;16.66;67.10
68511;SHT31;55512;50.102;19.958;2023-09-30T06:01:41;16.71;67.10
68511;SHT31;55512;50.102;19.958;2023-09-30T06:04:07;16.77;67.10
68511;SHT31;55512;50.102;19.958;2023-09-30T06:06:33;16.81;67.03
68511;SHT31;55512;50.102;19.958;2023-09-30T06:08:59;16.85;67.11
68511;SHT31;55512;50.102;19.958;2023-09-30T06:11:24;16.87;67.17
68511;SHT31;55512;50.102;19.958;2023-09-30T06:13:56;16.89;67.20
68511;SHT31;55512;50.102;19.958;2023-09-30T06:16:26;16.93;67.19
68511;SHT31;55512;50.102;19.958;2023-09-30T06:18:53;16.98;67.21
68511;SHT31;55512;50.102;19.958;2023-09-30T06:21:20;17.02;67.26
68511;SHT31;55512;50.102;19.958;2023-09-30T06:23:49;17.04;67.32
68511;SHT31;55512;50.102;19.958;2023-09-30T06:26:17;17.04;67.41
68511;SHT31;55512;50.102;19.958;2023-09-30T06:28:43;17.04;67.52
68511;SHT31;55512;50.102;19.958;2023-09-30T06:31:10;17.05;67.60
68511;SHT31;55512;50.102;19.958;2023-09-30T06:33:39;17.07;67.69
68511;SHT31;55512;50.102;19.958;2023-09-30T06:36:23;17.11;67.70
68511;SHT31;55512;50.102;19.958;2023-09-30T06:38:48;17.14;67.70
68511;SHT31;55512;50.102;19.958;2023-09-30T06:41:18;17.20;67.69
68511;SHT31;55512;50.102;19.958;2023-09-30T06:43:44;17.24;67.75
68511;SHT31;55512;50.102;19.958;2023-09-30T06:46:11;17.27;67.80
68511;SHT31;55512;50.102;19.958;2023-09-30T06:48:38;17.30;67.82
68511;SHT31;55512;50.102;19.958;2023-09-30T06:51:07;17.34;67.82
68511;SHT31;55512;50.102;19.958;2023-09-30T06:53:38;17.39;67.80
68511;SHT31;55512;50.102;19.958;2023-09-30T06:56:06;17.41;67.89
68511;SHT31;55512;50.102;19.958;2023-09-30T06:58:32;17.44;67.87
68511;SHT31;55512;50.102;19.958;2023-09-30T07:00:58;17.46;67.91
68511;SHT31;55512;50.102;19.958;2023-09-30T07:03:23;17.48;67.95
68511;SHT31;55512;50.102;19.958;2023-09-30T07:05:49;17.51;68.00
68511;SHT31;55512;50.102;19.958;2023-09-30T07:08:16;17.56;68.05
68511;SHT31;55512;50.102;19.958;2023-09-30T07:10:43;17.61;68.14
68511;SHT31;55512;50.102;19.958;2023-09-30T07:13:11;17.64;68.26
68511;SHT31;55512;50.102;19.958;2023-09-30T07:15:37;17.69;68.27
68511;SHT31;55512;50.102;19.958;2023-09-30T07:18:03;17.72;68.42
68511;SHT31;55512;50.102;19.958;2023-09-30T07:20:28;17.74;68.53
68511;SHT31;55512;50.102;19.958;2023-09-30T07:22:58;17.78;68.50
68511;SHT31;55512;50.102;19.958;2023-09-30T07:25:29;17.82;68.55
68511;SHT31;55512;50.102;19.958;2023-09-30T07:27:57;17.85;68.61
68511;SHT31;55512;50.102;19.958;2023-09-30T07:30:23;17.88;68.69
68511;SHT31;55512;50.102;19.958;2023-09-30T07:32:50;17.92;68.72
68511;SHT31;55512;50.102;19.958;2023-09-30T07:35:15;17.96;68.79
68511;SHT31;55512;50.102;19.958;2023-09-30T07:37:41;17.98;68.80
68511;SHT31;55512;50.102;19.958;2023-09-30T07:40:08;18.01;68.72
68511;SHT31;55512;50.102;19.958;2023-09-30T07:42:36;18.07;68.70
68511;SHT31;55512;50.102;19.958;2023-09-30T07:45:02;18.13;68.70
68511;SHT31;55512;50.102;19.958;2023-09-30T07:47:29;18.18;68.71
68511;SHT31;55512;50.102;19.958;2023-09-30T07:49:56;18.21;68.79
68511;SHT31;55512;50.102;19.958;2023-09-30T07:52:21;18.25;68.77
68511;SHT31;55512;50.102;19.958;2023-09-30T07:54:47;18.30;68.79
68511;SHT31;55512;50.102;19.958;2023-09-30T07:57:12;18.36;68.81
68511;SHT31;55512;50.102;19.958;2023-09-30T07:59:40;18.38;68.90
68511;SHT31;55512;50.102;19.958;2023-09-30T08:02:05;18.41;68.92
68511;SHT31;55512;50.102;19.958;2023-09-30T08:04:31;18.44;68.90
68511;SHT31;55512;50.102;19.958;2023-09-30T08:06:57;18.49;68.90
68511;SHT31;55512;50.102;19.958;2023-09-30T08:09:23;18.54;68.82
68511;SHT31;55512;50.102;19.958;2023-09-30T08:11:49;18.58;68.81
68511;SHT31;55512;50.102;19.958;2023-09-30T08:14:15;18.63;68.83
68511;SHT31;55512;50.102;19.958;2023-09-30T08:16:41;18.67;68.92
68511;SHT31;55512;50.102;19.958;2023-09-30T08:19:08;18.72;68.98
68511;SHT31;55512;50.102;19.958;2023-09-30T08:21:34;18.76;68.90
68511;SHT31;55512;50.102;19.958;2023-09-30T08:23:59;18.82;68.90
68511;SHT31;55512;50.102;19.958;2023-09-30T08:26:27;18.86;68.90
68511;SHT31;55512;50.102;19.958;2023-09-30T08:28:52;18.89;68.90
68511;SHT31;55512;50.102;19.958;2023-09-30T08:31:18;18.92;68.86
68511;SHT31;55512;50.102;19.958;2023-09-30T08:33:44;18.92;68.84
68511;SHT31;55512;50.102;19.958;2023-09-30T08:36:10;18.94;68.76
68511;SHT31;55512;50.102;19.958;2023-09-30T08:38:40;18.94;68.76
68511;SHT31;55512;50.102;19.958;2023-09-30T08:41:06;18.95;68.80
68511;SHT31;55512;50.102;19.958;2023-09-30T08:43:36;18.96;68.80
68511;SHT31;55512;50.102;19.958;2023-09-30T08:46:04;18.96;68.80
68511;SHT31;55512;50.102;19.958;2023-09-30T08:48:34;18.98;68.80
68511;SHT31;55512;50.102;19.958;2023-09-30T08:51:00;19.01;68.76
68511;SHT31;55512;50.102;19.958;2023-09-30T08:53:28;19.03;68.80
68511;SHT31;55512;50.102;19.958;2023-09-30T08:55:55;19.03;68.80
68511;SHT31;55512;50.102;19.958;2023-09-30T08:58:24;19.05;68.80
68511;SHT31;55512;50.102;19.958;2023-09-30T09:00:53;19.04;68.88
68511;SHT31;55512;50.102;19.958;2023-09-30T09:03:19;19.03;68.95
68511;SHT31;55512;50.102;19.958;2023-09-30T09:05:46;19.00;68.97
68511;SHT31;55512;50.102;19.958;2023-09-30T09:08:21;19.02;68.90
68511;SHT31;55512;50.102;19.958;2023-09-30T09:10:56;19.05;68.83
68511;SHT31;55512;50.102;19.958;2023-09-30T09:13:25;19.07;68.79
68511;SHT31;55512;50.102;19.958;2023-09-30T09:16:07;19.11;68.79
68511;SHT31;55512;50.102;19.958;2023-09-30T09:18:34;19.15;68.72
68511;SHT31;55512;50.102;19.958;2023-09-30T09:21:12;19.19;68.70
68511;SHT31;55512;50.102;19.958;2023-09-30T09:23:48;19.20;68.80
68511;SHT31;55512;50.102;19.958;2023-09-30T09:26:28;19.22;68.81
68511;SHT31;55512;50.102;19.958;2023-09-30T09:29:03;19.25;68.80
68511;SHT31;55512;50.102;19.958;2023-09-30T09:31:33;19.28;68.82
68511;SHT31;55512;50.102;19.958;2023-09-30T09:34:01;19.32;68.74
68511;SHT31;55512;50.102;19.958;2023-09-30T09:36:49;19.35;68.65
68511;SHT31;55512;50.102;19.958;2023-09-30T09:39:14;19.41;68.60
68511;SHT31;55512;50.102;19.958;2023-09-30T09:44:19;19.52;68.51
68511;SHT31;55512;50.102;19.958;2023-09-30T09:46:47;19.60;68.50
68511;SHT31;55512;50.102;19.958;2023-09-30T09:49:15;19.66;68.50
68511;SHT31;55512;50.102;19.958;2023-09-30T09:51:45;19.69;68.52
68511;SHT31;55512;50.102;19.958;2023-09-30T09:54:13;19.72;68.67
68511;SHT31;55512;50.102;19.958;2023-09-30T09:56:41;19.71;68.90
68511;SHT31;55512;50.102;19.958;2023-09-30T09:59:09;19.69;69.05
68511;SHT31;55512;50.102;19.958;2023-09-30T10:01:37;19.64;69.14
68511;SHT31;55512;50.102;19.958;2023-09-30T10:04:05;19.62;69.25
68511;SHT31;55512;50.102;19.958;2023-09-30T10:06:32;19.57;69.40
68511;SHT31;55512;50.102;19.958;2023-09-30T10:09:05;19.54;69.54
68511;SHT31;55512;50.102;19.958;2023-09-30T10:11:34;19.52;69.63
68511;SHT31;55512;50.102;19.958;2023-09-30T10:14:00;19.52;69.71
68511;SHT31;55512;50.102;19.958;2023-09-30T10:19:21;19.50;69.78
68511;SHT31;55512;50.102;19.958;2023-09-30T10:22:19;19.51;69.71
68511;SHT31;55512;50.102;19.958;2023-09-30T10:24:50;19.50;69.70
68511;SHT31;55512;50.102;19.958;2023-09-30T10:40:47;19.22;70.16
68511;SHT31;55512;50.102;19.958;2023-09-30T10:46:04;19.07;70.44
68511;SHT31;55512;50.102;19.958;2023-09-30T10:48:52;18.97;70.72
68511;SHT31;55512;50.102;19.958;2023-09-30T10:51:18;18.87;70.97
68511;SHT31;55512;50.102;19.958;2023-09-30T10:53:49;18.79;71.18
68511;SHT31;55512;50.102;19.958;2023-09-30T10:56:17;18.73;71.37
68511;SHT31;55512;50.102;19.958;2023-09-30T10:58:48;18.66;71.62
68511;SHT31;55512;50.102;19.958;2023-09-30T11:01:16;18.61;71.81
68511;SHT31;55512;50.102;19.958;2023-09-30T11:03:48;18.60;71.87
68511;SHT31;55512;50.102;19.958;2023-09-30T11:06:19;18.59;72.03
68511;SHT31;55512;50.102;19.958;2023-09-30T11:08:50;18.58;72.22
68511;SHT31;55512;50.102;19.958;2023-09-30T11:11:18;18.57;72.41
68511;SHT31;55512;50.102;19.958;2023-09-30T11:13:43;18.53;72.69
68511;SHT31;55512;50.102;19.958;2023-09-30T11:16:09;18.47;72.91
68511;SHT31;55512;50.102;19.958;2023-09-30T11:18:35;18.42;73.10
68511;SHT31;55512;50.102;19.958;2023-09-30T11:21:03;18.37;73.27
68511;SHT31;55512;50.102;19.958;2023-09-30T11:23:31;18.35;73.41
68511;SHT31;55512;50.102;19.958;2023-09-30T11:25:58;18.33;73.56
68511;SHT31;55512;50.102;19.958;2023-09-30T11:28:23;18.33;73.61
68511;SHT31;55512;50.102;19.958;2023-09-30T11:33:21;18.38;73.76
68511;SHT31;55512;50.102;19.958;2023-09-30T11:35:57;18.38;73.84
68511;SHT31;55512;50.102;19.958;2023-09-30T11:38:27;18.39;73.90
68511;SHT31;55512;50.102;19.958;2023-09-30T11:43:30;18.41;74.07
68511;SHT31;55512;50.102;19.958;2023-09-30T11:46:11;18.42;74.10
68511;SHT31;55512;50.102;19.958;2023-09-30T11:48:39;18.45;74.14
68511;SHT31;55512;50.102;19.958;2023-09-30T11:51:22;18.47;74.24
68511;SHT31;55512;50.102;19.958;2023-09-30T11:53:51;18.47;74.30
68511;SHT31;55512;50.102;19.958;2023-09-30T11:56:19;18.49;74.43
68511;SHT31;55512;50.102;19.958;2023-09-30T11:58:44;18.50;74.52
68511;SHT31;55512;50.102;19.958;2023-09-30T12:01:11;18.53;74.50
68511;SHT31;55512;50.102;19.958;2023-09-30T12:03:39;18.58;74.50
68511;SHT31;55512;50.102;19.958;2023-09-30T12:06:07;18.60;74.51
68511;SHT31;55512;50.102;19.958;2023-09-30T12:08:38;18.58;74.76
68511;SHT31;55512;50.102;19.958;2023-09-30T12:11:04;18.58;74.80
68511;SHT31;55512;50.102;19.958;2023-09-30T12:13:30;18.62;74.74
68511;SHT31;55512;50.102;19.958;2023-09-30T12:15:56;18.69;74.70
68511;SHT31;55512;50.102;19.958;2023-09-30T12:18:22;18.74;74.67
68511;SHT31;55512;50.102;19.958;2023-09-30T12:20:51;18.79;74.69
68511;SHT31;55512;50.102;19.958;2023-09-30T12:23:17;18.83;74.62
68511;SHT31;55512;50.102;19.958;2023-09-30T12:25:44;18.88;74.62
68511;SHT31;55512;50.102;19.958;2023-09-30T12:28:13;18.88;74.70
68511;SHT31;55512;50.102;19.958;2023-09-30T12:30:40;18.90;74.68
68511;SHT31;55512;50.102;19.958;2023-09-30T12:33:07;18.90;74.72
68511;SHT31;55512;50.102;19.958;2023-09-30T12:35:33;18.89;74.87
68511;SHT31;55512;50.102;19.958;2023-09-30T12:37:58;18.88;74.94
68511;SHT31;55512;50.102;19.958;2023-09-30T12:40:24;18.92;74.90
68511;SHT31;55512;50.102;19.958;2023-09-30T12:42:50;18.97;74.83
68511;SHT31;55512;50.102;19.958;2023-09-30T12:45:16;19.02;74.77
68511;SHT31;55512;50.102;19.958;2023-09-30T12:47:43;19.04;74.83
68511;SHT31;55512;50.102;19.958;2023-09-30T12:50:10;19.02;74.90
68511;SHT31;55512;50.102;19.958;2023-09-30T12:52:36;19.06;74.90
68511;SHT31;55512;50.102;19.958;2023-09-30T12:55:03;19.11;74.89
68511;SHT31;55512;50.102;19.958;2023-09-30T12:57:30;19.17;74.80
68511;SHT31;55512;50.102;19.958;2023-09-30T12:59:56;19.18;74.88
68511;SHT31;55512;50.102;19.958;2023-09-30T13:02:22;19.17;74.94
68511;SHT31;55512;50.102;19.958;2023-09-30T13:04:48;19.18;74.99
68511;SHT31;55512;50.102;19.958;2023-09-30T13:07:14;19.19;75.00
68511;SHT31;55512;50.102;19.958;2023-09-30T13:09:40;19.19;74.99
68511;SHT31;55512;50.102;19.958;2023-09-30T13:12:07;19.22;75.01
68511;SHT31;55512;50.102;19.958;2023-09-30T13:14:33;19.24;75.00
68511;SHT31;55512;50.102;19.958;2023-09-30T13:16:59;19.27;75.06
68511;SHT31;55512;50.102;19.958;2023-09-30T13:19:26;19.27;75.10
68511;SHT31;55512;50.102;19.958;2023-09-30T13:21:52;19.27;75.17
68511;SHT31;55512;50.102;19.958;2023-09-30T13:24:21;19.28;75.22
68511;SHT31;55512;50.102;19.958;2023-09-30T13:26:47;19.26;75.27
68511;SHT31;55512;50.102;19.958;2023-09-30T13:29:17;19.27;75.30
68511;SHT31;55512;50.102;19.958;2023-09-30T13:31:43;19.27;75.33
68511;SHT31;55512;50.102;19.958;2023-09-30T13:34:10;19.25;75.44
68511;SHT31;55512;50.102;19.958;2023-09-30T13:36:37;19.22;75.54
68511;SHT31;55512;50.102;19.958;2023-09-30T13:39:03;19.20;75.68
68511;SHT31;55512;50.102;19.958;2023-09-30T13:41:33;19.17;75.86
68511;SHT31;55512;50.102;19.958;2023-09-30T13:44:00;19.15;76.04
68511;SHT31;55512;50.102;19.958;2023-09-30T13:46:26;19.09;76.20
68511;SHT31;55512;50.102;19.958;2023-09-30T13:48:53;19.07;76.20
68511;SHT31;55512;50.102;19.958;2023-09-30T13:51:18;19.05;76.20
68511;SHT31;55512;50.102;19.958;2023-09-30T13:53:44;19.04;76.03
68511;SHT31;55512;50.102;19.958;2023-09-30T13:56:09;19.04;75.88
68511;SHT31;55512;50.102;19.958;2023-09-30T13:58:35;19.02;75.69
68511;SHT31;55512;50.102;19.958;2023-09-30T14:01:02;19.00;75.53
68511;SHT31;55512;50.102;19.958;2023-09-30T14:03:28;18.95;75.26
68511;SHT31;55512;50.102;19.958;2023-09-30T14:05:54;18.93;75.07
68511;SHT31;55512;50.102;19.958;2023-09-30T14:08:21;18.89;74.93
68511;SHT31;55512;50.102;19.958;2023-09-30T14:10:46;18.85;74.84
68511;SHT31;55512;50.102;19.958;2023-09-30T14:13:12;18.79;74.65
68511;SHT31;55512;50.102;19.958;2023-09-30T14:15:37;18.78;74.26
68511;SHT31;55512;50.102;19.958;2023-09-30T14:18:03;18.79;74.06
68511;SHT31;55512;50.102;19.958;2023-09-30T14:20:29;18.79;73.98
68511;SHT31;55512;50.102;19.958;2023-09-30T14:22:55;18.76;73.77
68511;SHT31;55512;50.102;19.958;2023-09-30T14:25:21;18.73;73.59
68511;SHT31;55512;50.102;19.958;2023-09-30T14:27:47;18.70;73.49
68511;SHT31;55512;50.102;19.958;2023-09-30T14:30:13;18.67;73.62
68511;SHT31;55512;50.102;19.958;2023-09-30T14:32:39;18.66;73.66
68511;SHT31;55512;50.102;19.958;2023-09-30T14:35:06;18.65;73.59
68511;SHT31;55512;50.102;19.958;2023-09-30T14:37:32;18.65;73.45
68511;SHT31;55512;50.102;19.958;2023-09-30T14:39:57;18.64;73.38
68511;SHT31;55512;50.102;19.958;2023-09-30T14:42:23;18.63;73.28
68511;SHT31;55512;50.102;19.958;2023-09-30T14:44:49;18.60;73.10
68511;SHT31;55512;50.102;19.958;2023-09-30T14:47:14;18.56;73.08
68511;SHT31;55512;50.102;19.958;2023-09-30T14:49:40;18.53;73.07
68511;SHT31;55512;50.102;19.958;2023-09-30T14:52:06;18.49;72.97
68511;SHT31;55512;50.102;19.958;2023-09-30T14:54:32;18.46;72.89
68511;SHT31;55512;50.102;19.958;2023-09-30T14:56:57;18.42;72.87
68511;SHT31;55512;50.102;19.958;2023-09-30T14:59:23;18.41;72.80
68511;SHT31;55512;50.102;19.958;2023-09-30T15:01:49;18.42;72.71
68511;SHT31;55512;50.102;19.958;2023-09-30T15:04:14;18.43;72.71
68511;SHT31;55512;50.102;19.958;2023-09-30T15:06:40;18.44;72.49
68511;SHT31;55512;50.102;19.958;2023-09-30T15:09:06;18.44;72.38
68511;SHT31;55512;50.102;19.958;2023-09-30T15:11:36;18.43;72.39
68511;SHT31;55512;50.102;19.958;2023-09-30T15:14:05;18.42;72.40
68511;SHT31;55512;50.102;19.958;2023-09-30T15:16:31;18.38;72.30
68511;SHT31;55512;50.102;19.958;2023-09-30T15:18:56;18.37;72.30
68511;SHT31;55512;50.102;19.958;2023-09-30T15:21:22;18.34;72.23
68511;SHT31;55512;50.102;19.958;2023-09-30T15:23:49;18.33;72.20
68511;SHT31;55512;50.102;19.958;2023-09-30T15:26:15;18.33;72.26
68511;SHT31;55512;50.102;19.958;2023-09-30T15:28:41;18.36;72.48
68511;SHT31;55512;50.102;19.958;2023-09-30T15:31:07;18.39;72.61
68511;SHT31;55512;50.102;19.958;2023-09-30T15:33:33;18.36;72.78
68511;SHT31;55512;50.102;19.958;2023-09-30T15:35:59;18.33;72.87
68511;SHT31;55512;50.102;19.958;2023-09-30T15:38:45;18.34;72.92
68511;SHT31;55512;50.102;19.958;2023-09-30T15:41:11;18.35;72.90
68511;SHT31;55512;50.102;19.958;2023-09-30T15:43:38;18.35;72.93